< < Back
Terminal Aerodrome Forecast


Current Version              Previous Versions:   1  2  3  4  5  6  7  8  9  

Terminal Aerodrome Forecast

761
FTUS42 KTAE 121733
TAFTLH
TAF
KTLH 121733Z 1218/1318 26015G27KT P6SM SCT030
     FM130100 29005KT P6SM SKC
     FM131500 36011G18KT P6SM SKC=



Latest METAR

013
SAUS80 KWBC 132100
MTRTLH
METAR KTLH 132053Z 34011G16KT 300V030 10SM CLR 17/M12 A3028 RMK AO2
SLP252 FU S-SW T01671122 55020


USA.gov is the U.S. government's official web portal to all federal, state and local government web resources and services.